ENT1344 DTNH-EPWA
Flight info
| Callsign | ENT1344 |
|---|---|
| Flight time | 2h 40m |
| Altitude | 35000 |
| Route | VAXAL UM734 SIRVI UM725 SUSIP DCT PININ/N0453F360 DCT VAPUP/N0450F370 DCT VEBAL/N0452F350 DCT LITKU DCT ORTEB DCT KONZI DCT LOGDA |
| Aircraft | B38M/M-SDGHIRWXYJ1J4J7/EB1 |
Departure
| Time | 2026-05-04 04:19 |
|---|---|
| Airport | Enfidha - Hammamet International Airport (DTNH) |
Arrival
| Time | 2026-05-04 06:59 |
|---|---|
| Airport | Warsaw Chopin Airport (EPWA) |
| Time | Latitude | Longitude | Altitude | Speed | Heading |
|---|---|---|---|---|---|
| 2026-05-04 03:34 | 36.07954 | 10.43657 | 27 ft | 0 kts | 241° |
| 2026-05-04 04:13 | 36.07951 | 10.43645 | 27 ft | 4 kts | 258° |
| 2026-05-04 04:13 | 36.07959 | 10.43631 | 27 ft | 3 kts | 329° |
| 2026-05-04 04:14 | 36.08007 | 10.43627 | 27 ft | 9 kts | 359° |
| 2026-05-04 04:14 | 36.08045 | 10.43693 | 26 ft | 12 kts | 87° |
| 2026-05-04 04:14 | 36.08040 | 10.43765 | 26 ft | 13 kts | 116° |
| 2026-05-04 04:14 | 36.07914 | 10.43799 | 29 ft | 21 kts | 180° |
| 2026-05-04 04:15 | 36.07807 | 10.43799 | 31 ft | 19 kts | 179° |
| 2026-05-04 04:15 | 36.07748 | 10.43858 | 33 ft | 12 kts | 95° |
| 2026-05-04 04:15 | 36.07746 | 10.44007 | 34 ft | 23 kts | 90° |
| 2026-05-04 04:15 | 36.07745 | 10.44247 | 35 ft | 29 kts | 90° |
| 2026-05-04 04:16 | 36.07745 | 10.44500 | 35 ft | 30 kts | 90° |
| 2026-05-04 04:16 | 36.07743 | 10.44756 | 32 ft | 28 kts | 90° |
| 2026-05-04 04:16 | 36.07741 | 10.45006 | 30 ft | 30 kts | 90° |
| 2026-05-04 04:16 | 36.07741 | 10.45264 | 29 ft | 30 kts | 90° |
| 2026-05-04 04:17 | 36.07739 | 10.45505 | 30 ft | 25 kts | 91° |
| 2026-05-04 04:17 | 36.07733 | 10.45653 | 31 ft | 12 kts | 110° |
| 2026-05-04 04:17 | 36.07665 | 10.45686 | 34 ft | 11 kts | 181° |
| 2026-05-04 04:17 | 36.07591 | 10.45666 | 35 ft | 12 kts | 219° |
| 2026-05-04 04:18 | 36.07568 | 10.45564 | 34 ft | 17 kts | 268° |
| 2026-05-04 04:18 | 36.07567 | 10.45261 | 34 ft | 68 kts | 270° |
| 2026-05-04 04:18 | 36.07573 | 10.44354 | 31 ft | 140 kts | 271° |
| 2026-05-04 04:18 | 36.07570 | 10.42949 | 276 ft | 175 kts | 267° |
| 2026-05-04 04:19 | 36.07569 | 10.41423 | 1057 ft | 182 kts | 265° |
| 2026-05-04 04:19 | 36.07779 | 10.39765 | 1550 ft | 216 kts | 294° |
| 2026-05-04 04:19 | 36.08923 | 10.38538 | 2514 ft | 226 kts | 338° |
| 2026-05-04 04:19 | 36.10516 | 10.38477 | 3401 ft | 240 kts | 18° |
| 2026-05-04 04:20 | 36.11882 | 10.39647 | 4115 ft | 253 kts | 55° |
| 2026-05-04 04:20 | 36.12624 | 10.41665 | 4804 ft | 267 kts | 72° |
| 2026-05-04 04:20 | 36.13488 | 10.43788 | 5426 ft | 286 kts | 51° |
| 2026-05-04 04:20 | 36.14999 | 10.45321 | 6519 ft | 279 kts | 25° |
| 2026-05-04 04:21 | 36.16822 | 10.46137 | 7484 ft | 280 kts | 14° |
| 2026-05-04 04:21 | 36.18699 | 10.46813 | 8460 ft | 281 kts | 13° |
| 2026-05-04 04:21 | 36.20587 | 10.47455 | 9451 ft | 282 kts | 12° |
| 2026-05-04 04:21 | 36.22484 | 10.48081 | 10374 ft | 284 kts | 12° |
| 2026-05-04 04:22 | 36.24456 | 10.48718 | 10862 ft | 302 kts | 11° |
| 2026-05-04 04:22 | 36.26563 | 10.49391 | 11205 ft | 323 kts | 11° |
| 2026-05-04 04:22 | 36.28796 | 10.50093 | 11612 ft | 339 kts | 11° |
| 2026-05-04 04:22 | 36.31122 | 10.50813 | 12183 ft | 348 kts | 11° |
| 2026-05-04 04:23 | 36.33475 | 10.51541 | 12990 ft | 350 kts | 11° |
| 2026-05-04 04:23 | 36.35854 | 10.52277 | 13687 ft | 355 kts | 11° |
| 2026-05-04 04:23 | 36.38258 | 10.53021 | 14353 ft | 358 kts | 11° |
| 2026-05-04 04:23 | 36.40690 | 10.53775 | 14995 ft | 362 kts | 11° |
| 2026-05-04 04:24 | 36.43146 | 10.54537 | 15616 ft | 365 kts | 11° |
| 2026-05-04 04:24 | 36.45622 | 10.55306 | 16226 ft | 369 kts | 10° |
| 2026-05-04 04:24 | 36.48126 | 10.56084 | 16816 ft | 372 kts | 10° |
| 2026-05-04 04:24 | 36.50618 | 10.56858 | 17401 ft | 376 kts | 10° |
| 2026-05-04 04:25 | 36.53168 | 10.57651 | 18014 ft | 379 kts | 10° |
| 2026-05-04 04:25 | 36.55739 | 10.58451 | 18558 ft | 383 kts | 10° |
| 2026-05-04 04:25 | 36.58337 | 10.59259 | 19040 ft | 386 kts | 9° |
| 2026-05-04 04:25 | 36.60955 | 10.60076 | 19538 ft | 389 kts | 9° |
| 2026-05-04 04:26 | 36.63591 | 10.60897 | 20028 ft | 392 kts | 9° |
| 2026-05-04 04:26 | 36.66248 | 10.61726 | 20508 ft | 395 kts | 9° |
| 2026-05-04 04:26 | 36.68928 | 10.62563 | 20992 ft | 398 kts | 9° |
| 2026-05-04 04:26 | 36.71626 | 10.63406 | 21469 ft | 402 kts | 9° |
| 2026-05-04 04:27 | 36.74350 | 10.64257 | 21943 ft | 405 kts | 9° |
| 2026-05-04 04:27 | 36.77091 | 10.65114 | 22434 ft | 408 kts | 9° |
| 2026-05-04 04:27 | 36.79851 | 10.65978 | 22947 ft | 410 kts | 9° |
| 2026-05-04 04:27 | 36.82633 | 10.66850 | 23418 ft | 413 kts | 9° |
| 2026-05-04 04:28 | 36.85424 | 10.67724 | 23867 ft | 416 kts | 9° |
| 2026-05-04 04:28 | 36.88241 | 10.68608 | 24284 ft | 418 kts | 9° |
| 2026-05-04 04:28 | 36.91065 | 10.69494 | 24725 ft | 420 kts | 9° |
| 2026-05-04 04:28 | 36.93906 | 10.70387 | 25150 ft | 421 kts | 9° |
| 2026-05-04 04:29 | 36.96754 | 10.71283 | 25567 ft | 423 kts | 9° |
| 2026-05-04 04:29 | 36.99618 | 10.72184 | 26003 ft | 425 kts | 9° |
| 2026-05-04 04:29 | 37.02487 | 10.73089 | 26434 ft | 426 kts | 8° |
| 2026-05-04 04:29 | 37.05373 | 10.73999 | 26821 ft | 428 kts | 8° |
| 2026-05-04 04:30 | 37.08230 | 10.74899 | 27196 ft | 430 kts | 8° |
| 2026-05-04 04:30 | 37.11142 | 10.75819 | 27580 ft | 432 kts | 8° |
| 2026-05-04 04:30 | 37.14069 | 10.76743 | 27950 ft | 434 kts | 8° |
| 2026-05-04 04:30 | 37.17009 | 10.77673 | 28317 ft | 436 kts | 8° |
| 2026-05-04 04:31 | 37.19958 | 10.78608 | 28682 ft | 438 kts | 8° |
| 2026-05-04 04:31 | 37.22925 | 10.79548 | 29054 ft | 440 kts | 8° |
| 2026-05-04 04:31 | 37.25906 | 10.80493 | 29350 ft | 444 kts | 8° |
| 2026-05-04 04:31 | 37.28909 | 10.81445 | 29692 ft | 446 kts | 8° |
| 2026-05-04 04:32 | 37.31919 | 10.82400 | 30036 ft | 448 kts | 8° |
| 2026-05-04 04:32 | 37.34950 | 10.83363 | 30331 ft | 450 kts | 8° |
| 2026-05-04 04:32 | 37.37988 | 10.84329 | 30621 ft | 451 kts | 8° |
| 2026-05-04 04:32 | 37.41037 | 10.85300 | 30971 ft | 451 kts | 8° |
| 2026-05-04 04:33 | 37.43997 | 10.86706 | 31372 ft | 462 kts | 22° |
| 2026-05-04 04:33 | 37.46648 | 10.89064 | 31837 ft | 471 kts | 34° |
| 2026-05-04 04:33 | 37.49156 | 10.91703 | 32194 ft | 470 kts | 33° |
| 2026-05-04 04:33 | 37.51654 | 10.94350 | 32588 ft | 469 kts | 33° |
| 2026-05-04 04:34 | 37.54136 | 10.97017 | 33005 ft | 468 kts | 34° |
| 2026-05-04 04:34 | 37.56565 | 10.99646 | 33409 ft | 466 kts | 33° |
| 2026-05-04 04:34 | 37.59019 | 11.02310 | 33812 ft | 464 kts | 33° |
| 2026-05-04 04:34 | 37.61461 | 11.04965 | 34194 ft | 463 kts | 33° |
| 2026-05-04 04:35 | 37.63899 | 11.07618 | 34516 ft | 462 kts | 33° |
| 2026-05-04 04:35 | 37.66328 | 11.10263 | 34814 ft | 461 kts | 33° |
| 2026-05-04 04:35 | 37.68757 | 11.12913 | 35100 ft | 461 kts | 33° |
| 2026-05-04 04:35 | 37.71184 | 11.15561 | 35370 ft | 461 kts | 33° |
| 2026-05-04 04:36 | 37.73610 | 11.18210 | 35641 ft | 460 kts | 33° |
| 2026-05-04 04:36 | 37.76033 | 11.20859 | 35905 ft | 460 kts | 33° |
| 2026-05-04 04:36 | 37.78450 | 11.23504 | 36116 ft | 460 kts | 33° |
| 2026-05-04 04:36 | 37.80874 | 11.26159 | 36131 ft | 460 kts | 33° |
| 2026-05-04 04:37 | 37.90510 | 11.36734 | 36123 ft | 458 kts | 33° |
| 2026-05-04 04:38 | 37.95664 | 11.41187 | 36150 ft | 443 kts | 21° |
| 2026-05-04 04:38 | 38.01098 | 11.44972 | 36126 ft | 445 kts | 21° |
| 2026-05-04 04:39 | 38.06548 | 11.48715 | 36126 ft | 445 kts | 21° |
| 2026-05-04 04:39 | 38.12009 | 11.52457 | 36141 ft | 446 kts | 21° |
| 2026-05-04 04:40 | 38.17465 | 11.56201 | 36129 ft | 446 kts | 21° |
| 2026-05-04 04:40 | 38.22918 | 11.59950 | 36130 ft | 446 kts | 21° |
| 2026-05-04 04:41 | 38.28378 | 11.63710 | 36142 ft | 446 kts | 21° |
| 2026-05-04 04:41 | 38.33798 | 11.67448 | 36147 ft | 447 kts | 21° |
| 2026-05-04 04:42 | 38.39275 | 11.71232 | 36138 ft | 448 kts | 21° |
| 2026-05-04 04:42 | 38.44753 | 11.75023 | 36142 ft | 448 kts | 21° |
| 2026-05-04 04:43 | 38.50239 | 11.78828 | 36143 ft | 448 kts | 21° |
| 2026-05-04 04:43 | 38.55723 | 11.82638 | 36146 ft | 450 kts | 22° |
| 2026-05-04 04:44 | 38.61230 | 11.86468 | 36145 ft | 450 kts | 22° |
| 2026-05-04 04:44 | 38.66733 | 11.90304 | 36152 ft | 450 kts | 22° |
| 2026-05-04 04:45 | 38.72231 | 11.94143 | 36151 ft | 450 kts | 22° |
| 2026-05-04 04:47 | 38.91588 | 12.07714 | 36163 ft | 456 kts | 23° |
| 2026-05-04 04:47 | 38.97154 | 12.11633 | 36168 ft | 456 kts | 23° |
| 2026-05-04 04:48 | 39.02720 | 12.15557 | 36160 ft | 456 kts | 23° |
| 2026-05-04 04:49 | 39.16640 | 12.25403 | 36163 ft | 457 kts | 24° |
| 2026-05-04 04:49 | 39.22226 | 12.29368 | 36159 ft | 459 kts | 24° |
| 2026-05-04 04:50 | 39.27822 | 12.33345 | 36156 ft | 459 kts | 24° |
| 2026-05-04 04:50 | 39.33373 | 12.37300 | 36164 ft | 459 kts | 24° |
| 2026-05-04 04:51 | 39.38964 | 12.41291 | 36171 ft | 460 kts | 25° |
| 2026-05-04 04:51 | 39.44575 | 12.45301 | 36165 ft | 460 kts | 25° |
| 2026-05-04 04:52 | 39.50175 | 12.49311 | 36165 ft | 460 kts | 25° |
| 2026-05-04 04:52 | 39.55782 | 12.53335 | 36168 ft | 460 kts | 25° |
| 2026-05-04 04:53 | 39.61397 | 12.57373 | 36172 ft | 461 kts | 25° |
| 2026-05-04 04:53 | 39.67007 | 12.61412 | 36169 ft | 462 kts | 25° |
| 2026-05-04 04:54 | 39.72621 | 12.65463 | 36169 ft | 462 kts | 25° |
| 2026-05-04 04:54 | 39.78201 | 12.69498 | 36180 ft | 462 kts | 25° |
| 2026-05-04 04:55 | 39.83819 | 12.73567 | 36170 ft | 462 kts | 25° |
| 2026-05-04 04:55 | 39.89429 | 12.77638 | 36172 ft | 462 kts | 25° |
| 2026-05-04 04:56 | 39.95018 | 12.81701 | 36170 ft | 459 kts | 25° |
| 2026-05-04 04:56 | 40.00610 | 12.85774 | 36172 ft | 460 kts | 25° |
| 2026-05-04 04:57 | 40.06190 | 12.89846 | 36175 ft | 460 kts | 26° |
| 2026-05-04 04:57 | 40.11778 | 12.93933 | 36175 ft | 460 kts | 26° |
| 2026-05-04 04:58 | 40.17355 | 12.98019 | 36175 ft | 460 kts | 26° |
| 2026-05-04 04:58 | 40.22948 | 13.02123 | 36178 ft | 462 kts | 26° |
| 2026-05-04 04:59 | 40.28559 | 13.06249 | 36173 ft | 462 kts | 26° |
| 2026-05-04 04:59 | 40.34166 | 13.10381 | 36177 ft | 462 kts | 26° |
| 2026-05-04 05:00 | 40.39774 | 13.14521 | 36193 ft | 462 kts | 26° |
| 2026-05-04 05:01 | 40.48173 | 13.20736 | 36182 ft | 462 kts | 26° |
| 2026-05-04 05:01 | 40.53771 | 13.24889 | 36176 ft | 462 kts | 26° |
| 2026-05-04 05:02 | 40.59336 | 13.29025 | 36179 ft | 462 kts | 26° |
| 2026-05-04 05:02 | 40.64939 | 13.33196 | 36176 ft | 463 kts | 26° |
| 2026-05-04 05:03 | 40.69631 | 13.36696 | 36170 ft | 463 kts | 26° |
| 2026-05-04 05:04 | 40.80798 | 13.45050 | 36173 ft | 463 kts | 26° |
| 2026-05-04 05:04 | 40.86393 | 13.49247 | 36166 ft | 462 kts | 26° |
| 2026-05-04 05:06 | 41.08673 | 13.66047 | 36165 ft | 461 kts | 26° |
| 2026-05-04 05:07 | 41.14239 | 13.70262 | 36166 ft | 461 kts | 26° |
| 2026-05-04 05:07 | 41.19806 | 13.74488 | 36171 ft | 461 kts | 26° |
| 2026-05-04 05:09 | 41.44767 | 13.93540 | 36175 ft | 458 kts | 26° |
| 2026-05-04 05:10 | 41.50289 | 13.97780 | 36169 ft | 458 kts | 26° |
| 2026-05-04 05:10 | 41.55818 | 14.02032 | 36189 ft | 458 kts | 26° |
| 2026-05-04 05:11 | 41.61340 | 14.06288 | 36173 ft | 458 kts | 26° |
| 2026-05-04 05:11 | 41.66856 | 14.10545 | 36166 ft | 458 kts | 26° |
| 2026-05-04 05:12 | 41.72367 | 14.14810 | 36174 ft | 458 kts | 26° |
| 2026-05-04 05:12 | 41.77878 | 14.19082 | 36162 ft | 457 kts | 26° |
| 2026-05-04 05:13 | 41.83376 | 14.23351 | 36163 ft | 455 kts | 26° |
| 2026-05-04 05:13 | 41.88836 | 14.27599 | 36151 ft | 453 kts | 26° |
| 2026-05-04 05:14 | 41.94256 | 14.31828 | 36142 ft | 454 kts | 26° |
| 2026-05-04 05:14 | 41.99717 | 14.36094 | 36134 ft | 454 kts | 26° |
| 2026-05-04 05:15 | 42.05177 | 14.40369 | 36138 ft | 454 kts | 26° |
| 2026-05-04 05:15 | 42.10628 | 14.44645 | 36142 ft | 454 kts | 26° |
| 2026-05-04 05:16 | 42.16084 | 14.48936 | 36131 ft | 454 kts | 26° |
| 2026-05-04 05:16 | 42.21545 | 14.53238 | 36122 ft | 454 kts | 26° |
| 2026-05-04 05:17 | 42.26999 | 14.57541 | 36114 ft | 454 kts | 26° |
| 2026-05-04 05:17 | 42.32458 | 14.61858 | 36120 ft | 454 kts | 26° |
| 2026-05-04 05:18 | 42.37914 | 14.66181 | 36119 ft | 454 kts | 27° |
| 2026-05-04 05:18 | 42.43372 | 14.70516 | 36116 ft | 454 kts | 27° |
| 2026-05-04 05:19 | 42.48786 | 14.74826 | 36117 ft | 455 kts | 27° |
| 2026-05-04 05:19 | 42.54278 | 14.79205 | 36117 ft | 455 kts | 27° |
| 2026-05-04 05:20 | 42.59701 | 14.83536 | 36115 ft | 455 kts | 27° |
| 2026-05-04 05:20 | 42.62435 | 14.85723 | 35980 ft | 456 kts | 27° |
| 2026-05-04 05:20 | 42.65168 | 14.87910 | 35740 ft | 455 kts | 27° |
| 2026-05-04 05:21 | 42.67896 | 14.90098 | 35504 ft | 455 kts | 27° |
| 2026-05-04 05:21 | 42.70625 | 14.92286 | 35256 ft | 456 kts | 27° |
| 2026-05-04 05:21 | 42.73348 | 14.94472 | 35119 ft | 454 kts | 27° |
| 2026-05-04 05:21 | 42.76069 | 14.96660 | 35112 ft | 453 kts | 27° |
| 2026-05-04 05:22 | 42.81505 | 15.01037 | 35118 ft | 455 kts | 27° |
| 2026-05-04 05:22 | 42.86945 | 15.05426 | 35122 ft | 454 kts | 27° |
| 2026-05-04 05:23 | 42.92385 | 15.09824 | 35124 ft | 454 kts | 27° |
| 2026-05-04 05:23 | 42.97823 | 15.14231 | 35123 ft | 454 kts | 27° |
| 2026-05-04 05:24 | 43.03259 | 15.18644 | 35128 ft | 454 kts | 27° |
| 2026-05-04 05:24 | 43.08808 | 15.22560 | 35132 ft | 451 kts | 22° |
| 2026-05-04 05:25 | 43.14452 | 15.26343 | 35124 ft | 452 kts | 22° |
| 2026-05-04 05:25 | 43.20091 | 15.30159 | 35140 ft | 451 kts | 22° |
| 2026-05-04 05:26 | 43.25702 | 15.33964 | 35124 ft | 449 kts | 22° |
| 2026-05-04 05:26 | 43.31309 | 15.37775 | 35127 ft | 450 kts | 22° |
| 2026-05-04 05:28 | 43.53729 | 15.53091 | 35127 ft | 450 kts | 22° |
| 2026-05-04 05:29 | 43.59334 | 15.56941 | 35128 ft | 451 kts | 22° |
| 2026-05-04 05:29 | 43.64912 | 15.60778 | 35127 ft | 451 kts | 22° |
| 2026-05-04 05:31 | 43.87271 | 15.76248 | 35134 ft | 448 kts | 22° |
| 2026-05-04 05:32 | 43.92852 | 15.80129 | 35138 ft | 449 kts | 22° |
| 2026-05-04 05:33 | 44.01226 | 15.85967 | 35131 ft | 449 kts | 22° |
| 2026-05-04 05:33 | 44.06812 | 15.89872 | 35132 ft | 449 kts | 22° |
| 2026-05-04 05:34 | 44.12394 | 15.93785 | 35134 ft | 449 kts | 22° |
| 2026-05-04 05:34 | 44.17976 | 15.97703 | 35133 ft | 449 kts | 22° |
| 2026-05-04 05:35 | 44.23555 | 16.01631 | 35141 ft | 449 kts | 22° |
| 2026-05-04 05:35 | 44.29101 | 16.05541 | 35134 ft | 449 kts | 22° |
| 2026-05-04 05:36 | 44.34671 | 16.09475 | 35119 ft | 448 kts | 23° |
| 2026-05-04 05:36 | 44.40241 | 16.13420 | 35148 ft | 449 kts | 23° |
| 2026-05-04 05:37 | 44.45816 | 16.17377 | 35136 ft | 449 kts | 23° |
| 2026-05-04 05:37 | 44.51381 | 16.21334 | 35127 ft | 449 kts | 23° |
| 2026-05-04 05:38 | 44.59728 | 16.27288 | 35122 ft | 449 kts | 23° |
| 2026-05-04 05:38 | 44.65291 | 16.31266 | 35123 ft | 448 kts | 23° |
| 2026-05-04 05:39 | 44.73615 | 16.37232 | 35119 ft | 448 kts | 23° |
| 2026-05-04 05:40 | 44.81935 | 16.43218 | 35110 ft | 447 kts | 24° |
| 2026-05-04 05:40 | 44.87436 | 16.47187 | 35106 ft | 447 kts | 24° |
| 2026-05-04 05:41 | 44.92976 | 16.51191 | 35104 ft | 447 kts | 24° |
| 2026-05-04 05:41 | 44.98522 | 16.55210 | 35106 ft | 447 kts | 24° |
| 2026-05-04 05:42 | 45.04055 | 16.59224 | 35104 ft | 447 kts | 24° |
| 2026-05-04 05:42 | 45.09589 | 16.63253 | 35103 ft | 447 kts | 24° |
| 2026-05-04 05:43 | 45.15121 | 16.67287 | 35110 ft | 447 kts | 25° |
| 2026-05-04 05:45 | 45.37232 | 16.83499 | 35097 ft | 447 kts | 25° |
| 2026-05-04 05:47 | 45.59308 | 16.99831 | 35095 ft | 447 kts | 25° |
| 2026-05-04 05:47 | 45.64835 | 17.03943 | 35094 ft | 447 kts | 25° |
| 2026-05-04 05:48 | 45.70353 | 17.08054 | 35104 ft | 447 kts | 25° |
| 2026-05-04 05:48 | 45.75853 | 17.12163 | 35112 ft | 443 kts | 25° |
| 2026-05-04 05:49 | 45.81303 | 17.16242 | 35097 ft | 441 kts | 25° |
| 2026-05-04 05:49 | 45.85826 | 17.19636 | 35102 ft | 442 kts | 25° |
| 2026-05-04 05:51 | 46.07067 | 17.37418 | 35114 ft | 443 kts | 32° |
| 2026-05-04 05:52 | 46.12169 | 17.42421 | 35113 ft | 443 kts | 32° |
| 2026-05-04 05:52 | 46.17276 | 17.47440 | 35113 ft | 443 kts | 32° |
| 2026-05-04 05:54 | 46.37630 | 17.67560 | 35114 ft | 444 kts | 32° |
| 2026-05-04 05:55 | 46.42722 | 17.72619 | 35119 ft | 444 kts | 32° |
| 2026-05-04 05:55 | 46.47817 | 17.77695 | 35116 ft | 444 kts | 32° |
| 2026-05-04 05:56 | 46.52909 | 17.82781 | 35113 ft | 444 kts | 32° |
| 2026-05-04 05:56 | 46.57990 | 17.87869 | 35113 ft | 444 kts | 32° |
| 2026-05-04 05:57 | 46.63076 | 17.92972 | 35115 ft | 444 kts | 32° |
| 2026-05-04 05:57 | 46.68129 | 17.98055 | 35117 ft | 444 kts | 32° |
| 2026-05-04 05:58 | 46.73206 | 18.03170 | 35120 ft | 444 kts | 32° |
| 2026-05-04 05:58 | 46.78286 | 18.08305 | 35122 ft | 444 kts | 33° |
| 2026-05-04 05:59 | 46.83367 | 18.13451 | 35120 ft | 445 kts | 33° |
| 2026-05-04 05:59 | 46.88448 | 18.18606 | 35120 ft | 445 kts | 33° |
| 2026-05-04 06:00 | 46.93530 | 18.23776 | 35125 ft | 445 kts | 33° |
| 2026-05-04 06:00 | 46.98603 | 18.28950 | 35131 ft | 445 kts | 33° |
| 2026-05-04 06:01 | 47.03680 | 18.34141 | 35126 ft | 445 kts | 33° |
| 2026-05-04 06:03 | 47.23839 | 18.54872 | 35134 ft | 442 kts | 33° |
| 2026-05-04 06:05 | 47.46470 | 18.78383 | 35139 ft | 442 kts | 33° |
| 2026-05-04 06:06 | 47.51492 | 18.83634 | 35146 ft | 442 kts | 33° |
| 2026-05-04 06:06 | 47.56522 | 18.88906 | 35140 ft | 442 kts | 33° |
| 2026-05-04 06:07 | 47.61544 | 18.94183 | 35146 ft | 442 kts | 33° |
| 2026-05-04 06:07 | 47.66567 | 18.99473 | 35148 ft | 443 kts | 33° |
| 2026-05-04 06:08 | 47.71552 | 19.04732 | 35145 ft | 443 kts | 33° |
| 2026-05-04 06:08 | 47.76570 | 19.10044 | 35143 ft | 443 kts | 33° |
| 2026-05-04 06:09 | 47.81586 | 19.15363 | 35146 ft | 443 kts | 33° |
| 2026-05-04 06:11 | 48.01634 | 19.36762 | 35144 ft | 443 kts | 34° |
| 2026-05-04 06:13 | 48.21656 | 19.58305 | 35150 ft | 443 kts | 31° |
| 2026-05-04 06:14 | 48.38875 | 19.67768 | 35151 ft | 440 kts | 17° |
| 2026-05-04 06:14 | 48.41780 | 19.69228 | 35151 ft | 440 kts | 17° |
| 2026-05-04 06:15 | 48.47590 | 19.72150 | 35152 ft | 440 kts | 17° |
| 2026-05-04 06:15 | 48.53367 | 19.75064 | 35155 ft | 441 kts | 17° |
| 2026-05-04 06:16 | 48.59184 | 19.78005 | 35149 ft | 441 kts | 17° |
| 2026-05-04 06:16 | 48.65003 | 19.80956 | 35144 ft | 441 kts | 17° |
| 2026-05-04 06:17 | 48.70818 | 19.83910 | 35141 ft | 441 kts | 17° |
| 2026-05-04 06:17 | 48.76627 | 19.86867 | 35139 ft | 440 kts | 17° |
| 2026-05-04 06:18 | 48.82434 | 19.89830 | 35141 ft | 440 kts | 17° |
| 2026-05-04 06:20 | 49.05659 | 20.01760 | 35125 ft | 440 kts | 17° |
| 2026-05-04 06:21 | 49.20170 | 20.09274 | 35126 ft | 440 kts | 17° |
| 2026-05-04 06:22 | 49.25969 | 20.12292 | 35101 ft | 440 kts | 17° |
| 2026-05-04 06:25 | 49.66514 | 20.33586 | 35082 ft | 440 kts | 17° |
| 2026-05-04 06:26 | 49.72312 | 20.36665 | 35079 ft | 440 kts | 17° |
| 2026-05-04 06:26 | 49.78107 | 20.39745 | 35079 ft | 440 kts | 18° |
| 2026-05-04 06:27 | 49.92617 | 20.47501 | 35071 ft | 441 kts | 18° |
| 2026-05-04 06:28 | 49.98415 | 20.50608 | 35070 ft | 441 kts | 18° |
| 2026-05-04 06:28 | 50.04185 | 20.53713 | 35067 ft | 441 kts | 18° |
| 2026-05-04 06:29 | 50.10018 | 20.56696 | 35049 ft | 440 kts | 9° |
| 2026-05-04 06:29 | 50.16099 | 20.57535 | 35044 ft | 439 kts | 359° |
| 2026-05-04 06:30 | 50.22190 | 20.58039 | 35074 ft | 440 kts | 4° |
| 2026-05-04 06:30 | 50.28309 | 20.58802 | 35067 ft | 441 kts | 3° |
| 2026-05-04 06:31 | 50.34429 | 20.59461 | 35062 ft | 441 kts | 3° |
| 2026-05-04 06:31 | 50.40553 | 20.60103 | 35060 ft | 441 kts | 3° |
| 2026-05-04 06:33 | 50.65108 | 20.62666 | 33979 ft | 443 kts | 3° |
| 2026-05-04 06:34 | 50.67149 | 20.62880 | 33796 ft | 443 kts | 3° |
| 2026-05-04 06:34 | 50.70220 | 20.63202 | 33424 ft | 439 kts | 3° |
| 2026-05-04 06:34 | 50.73275 | 20.63523 | 32465 ft | 443 kts | 3° |
| 2026-05-04 06:34 | 50.76382 | 20.63850 | 31313 ft | 452 kts | 3° |
| 2026-05-04 06:35 | 50.79535 | 20.64182 | 30382 ft | 456 kts | 3° |
| 2026-05-04 06:36 | 51.01573 | 20.66515 | 25102 ft | 454 kts | 2° |
| 2026-05-04 06:37 | 51.04707 | 20.66849 | 24431 ft | 449 kts | 2° |
| 2026-05-04 06:37 | 51.07820 | 20.67182 | 23765 ft | 447 kts | 2° |
| 2026-05-04 06:37 | 51.10916 | 20.67513 | 23005 ft | 445 kts | 2° |
| 2026-05-04 06:37 | 51.13993 | 20.67841 | 22302 ft | 441 kts | 2° |
| 2026-05-04 06:38 | 51.16993 | 20.68161 | 21880 ft | 432 kts | 2° |
| 2026-05-04 06:38 | 51.19942 | 20.68477 | 21661 ft | 419 kts | 1° |
| 2026-05-04 06:40 | 51.38967 | 20.68185 | 19044 ft | 382 kts | 353° |
| 2026-05-04 06:40 | 51.41616 | 20.67882 | 18582 ft | 381 kts | 353° |
| 2026-05-04 06:40 | 51.44261 | 20.67581 | 18070 ft | 381 kts | 353° |
| 2026-05-04 06:40 | 51.46904 | 20.67278 | 17560 ft | 380 kts | 353° |
| 2026-05-04 06:41 | 51.49532 | 20.66977 | 17078 ft | 378 kts | 353° |
| 2026-05-04 06:41 | 51.52120 | 20.66679 | 16609 ft | 376 kts | 353° |
| 2026-05-04 06:41 | 51.54736 | 20.66378 | 16078 ft | 376 kts | 353° |
| 2026-05-04 06:41 | 51.57339 | 20.66081 | 15664 ft | 374 kts | 353° |
| 2026-05-04 06:42 | 51.59924 | 20.65783 | 15213 ft | 372 kts | 353° |
| 2026-05-04 06:42 | 51.62487 | 20.65488 | 14757 ft | 367 kts | 353° |
| 2026-05-04 06:42 | 51.65023 | 20.65193 | 14304 ft | 363 kts | 352° |
| 2026-05-04 06:44 | 51.81039 | 20.68627 | 12324 ft | 307 kts | 9° |
| 2026-05-04 06:44 | 51.83102 | 20.69334 | 12176 ft | 298 kts | 8° |
| 2026-05-04 06:44 | 51.85102 | 20.70016 | 12022 ft | 291 kts | 8° |
| 2026-05-04 06:45 | 51.87072 | 20.70682 | 11770 ft | 285 kts | 8° |
| 2026-05-04 06:45 | 51.88986 | 20.71329 | 11527 ft | 276 kts | 8° |
| 2026-05-04 06:45 | 51.90832 | 20.71953 | 11306 ft | 267 kts | 8° |
| 2026-05-04 06:45 | 51.92639 | 20.72562 | 10929 ft | 265 kts | 8° |
| 2026-05-04 06:46 | 51.94436 | 20.73163 | 10558 ft | 263 kts | 8° |
| 2026-05-04 06:46 | 51.96220 | 20.73767 | 10193 ft | 261 kts | 8° |
| 2026-05-04 06:46 | 51.97999 | 20.74365 | 9806 ft | 260 kts | 8° |
| 2026-05-04 06:46 | 51.99764 | 20.74962 | 9414 ft | 258 kts | 8° |
| 2026-05-04 06:48 | 52.11785 | 20.77589 | 7217 ft | 237 kts | 322° |
| 2026-05-04 06:48 | 52.12932 | 20.75790 | 6952 ft | 226 kts | 297° |
| 2026-05-04 06:49 | 52.13696 | 20.73578 | 6744 ft | 224 kts | 292° |
| 2026-05-04 06:50 | 52.18379 | 20.57453 | 4912 ft | 221 kts | 290° |
| 2026-05-04 06:51 | 52.19002 | 20.55204 | 4817 ft | 216 kts | 290° |
| 2026-05-04 06:51 | 52.19619 | 20.52967 | 4797 ft | 217 kts | 290° |
| 2026-05-04 06:51 | 52.20243 | 20.50718 | 4761 ft | 217 kts | 290° |
| 2026-05-04 06:51 | 52.20861 | 20.48468 | 4674 ft | 217 kts | 290° |
| 2026-05-04 06:52 | 52.21479 | 20.46225 | 4593 ft | 217 kts | 290° |
| 2026-05-04 06:52 | 52.22098 | 20.43972 | 4509 ft | 217 kts | 290° |
| 2026-05-04 06:52 | 52.22965 | 20.41950 | 4398 ft | 223 kts | 317° |
| 2026-05-04 06:52 | 52.24392 | 20.40894 | 4325 ft | 232 kts | 347° |
| 2026-05-04 06:53 | 52.26012 | 20.41113 | 4371 ft | 240 kts | 18° |
| 2026-05-04 06:53 | 52.27408 | 20.42596 | 4370 ft | 243 kts | 47° |
| 2026-05-04 06:53 | 52.28272 | 20.44959 | 4318 ft | 244 kts | 69° |
| 2026-05-04 06:53 | 52.28895 | 20.47554 | 4228 ft | 247 kts | 73° |
| 2026-05-04 06:54 | 52.29070 | 20.50290 | 4077 ft | 240 kts | 101° |
| 2026-05-04 06:54 | 52.28691 | 20.52891 | 3948 ft | 233 kts | 112° |
| 2026-05-04 06:54 | 52.28095 | 20.55348 | 3881 ft | 233 kts | 117° |
| 2026-05-04 06:54 | 52.27447 | 20.57771 | 3823 ft | 232 kts | 117° |
| 2026-05-04 06:55 | 52.26787 | 20.60183 | 3761 ft | 234 kts | 118° |
| 2026-05-04 06:55 | 52.26114 | 20.62605 | 3720 ft | 235 kts | 118° |
| 2026-05-04 06:55 | 52.25437 | 20.65031 | 3684 ft | 232 kts | 118° |
| 2026-05-04 06:55 | 52.24787 | 20.67385 | 3587 ft | 223 kts | 118° |
| 2026-05-04 06:56 | 52.24157 | 20.69634 | 3461 ft | 214 kts | 118° |
| 2026-05-04 06:57 | 52.19998 | 20.84521 | 1740 ft | 191 kts | 122° |
| 2026-05-04 06:58 | 52.19462 | 20.86428 | 1510 ft | 177 kts | 122° |
| 2026-05-04 06:58 | 52.18963 | 20.88206 | 1271 ft | 168 kts | 121° |
| 2026-05-04 06:58 | 52.18486 | 20.89908 | 1010 ft | 161 kts | 119° |
| 2026-05-04 06:58 | 52.18007 | 20.91552 | 797 ft | 164 kts | 115° |
| 2026-05-04 06:59 | 52.17544 | 20.93252 | 581 ft | 158 kts | 116° |
| 2026-05-04 06:59 | 52.17100 | 20.94849 | 367 ft | 152 kts | 118° |
| 2026-05-04 06:59 | 52.16706 | 20.96244 | 343 ft | 109 kts | 114° |
| 2026-05-04 06:59 | 52.16514 | 20.97006 | 337 ft | 47 kts | 96° |
| 2026-05-04 07:01 | 52.16960 | 20.96773 | 338 ft | 20 kts | 332° |
| 2026-05-04 07:01 | 52.17062 | 20.96684 | 341 ft | 11 kts | 331° |
| 2026-05-04 07:02 | 52.17122 | 20.96631 | 336 ft | 9 kts | 331° |
| 2026-05-04 07:02 | 52.17185 | 20.96577 | 336 ft | 12 kts | 332° |
| 2026-05-04 07:02 | 52.17273 | 20.96500 | 341 ft | 17 kts | 332° |
| 2026-05-04 07:02 | 52.17377 | 20.96408 | 337 ft | 14 kts | 332° |
| 2026-05-04 07:03 | 52.17441 | 20.96425 | 341 ft | 11 kts | 52° |
| 2026-05-04 07:03 | 52.17488 | 20.96536 | 340 ft | 13 kts | 40° |
| 2026-05-04 07:03 | 52.17572 | 20.96524 | 341 ft | 14 kts | 332° |
| 2026-05-04 07:03 | 52.17663 | 20.96444 | 341 ft | 16 kts | 332° |
| 2026-05-04 07:04 | 52.17771 | 20.96352 | 340 ft | 17 kts | 332° |
| 2026-05-04 07:04 | 52.17808 | 20.96320 | 337 ft | 0 kts | 332° |
| 2026-05-04 07:05 | 52.17809 | 20.96319 | 341 ft | 0 kts | 332° |
| 2026-05-04 07:05 | 52.17815 | 20.96313 | 339 ft | 2 kts | 326° |
| 2026-05-04 07:05 | 52.17831 | 20.96283 | 341 ft | 5 kts | 303° |
| 2026-05-04 07:05 | 52.17862 | 20.96238 | 338 ft | 7 kts | 332° |
| 2026-05-04 07:06 | 52.17901 | 20.96204 | 341 ft | 0 kts | 332° |